Login to view products.
 
Saturday, April 13, 2024 (03:30 UTC)
Sir Bani Yas Airport
ICAO: OMBY  IATA: XSB
  • PLEASE NOTE! This forecast does not comply with ICAO regulations as it depends on a Non-ICAO Compliant Observing System
    (B in the forecast indicates "BELOW")
  • METAR OMBY NOT RECEIVED
  • FORECAST OMBY:
  • OMBY 122300Z 1300/1308 01012KT 8000 FEW040=
03-- D:\Input Parser\Destinations\Final\23\OMBYL000823001326533498.txt-- -- 13/04/2024-- 2
Last Updated:
Wind Dir/Speed:
Temperature:
Rel. Humidity:
Pressure:
Visibility: